createdAt,value
2019-01-21T00:01:45.647Z,101456.44
2019-01-21T00:04:15.014Z,101458.62
2019-01-21T00:06:44.206Z,101462.28
2019-01-21T00:09:13.410Z,101462.11
2019-01-21T00:11:43.142Z,101455.95
2019-01-21T00:14:12.336Z,101455.81
2019-01-21T00:16:41.536Z,101458.39
2019-01-21T00:19:11.143Z,101458.97
2019-01-21T00:21:40.349Z,101456.63
2019-01-21T00:24:09.543Z,101459.16
2019-01-21T00:26:39.046Z,101455.52
2019-01-21T00:29:10.475Z,101412.14
2019-01-21T00:31:39.691Z,101447.51
2019-01-21T00:34:09.058Z,101452.06
2019-01-21T00:36:38.247Z,101459.33
2019-01-21T00:39:08.692Z,101457.36
2019-01-21T00:41:38.237Z,101300.73
2019-01-21T00:44:07.550Z,101458.83
2019-01-21T00:46:37.106Z,101455.95
2019-01-21T00:49:06.640Z,101453.06
2019-01-21T00:51:35.822Z,101458.53
2019-01-21T00:54:05.021Z,101461.81
2019-01-21T00:56:34.631Z,101457.49
2019-01-21T00:59:03.832Z,101465.49
2019-01-21T01:01:33.028Z,101465.13
2019-01-21T01:04:02.372Z,101458.39
2019-01-21T01:06:31.566Z,101465.86
2019-01-21T01:09:00.782Z,101461.34
2019-01-21T01:11:30.230Z,101467.16
2019-01-21T01:13:59.415Z,101464.45
2019-01-21T01:16:28.605Z,101466.09
2019-01-21T01:18:58.275Z,101468.47
2019-01-21T01:21:27.484Z,101468.10
2019-01-21T01:23:56.663Z,101466.30
2019-01-21T01:26:26.001Z,101465.39
2019-01-21T01:28:55.314Z,101465.59
2019-01-21T01:31:24.523Z,101460.70
2019-01-21T01:33:54.041Z,101472.31
2019-01-21T01:36:23.231Z,101470.87
2019-01-21T01:38:52.488Z,101476.53
2019-01-21T01:41:21.826Z,101481.98
2019-01-21T01:43:51.117Z,101475.83
2019-01-21T01:46:20.315Z,101480.02
2019-01-21T01:48:49.687Z,101477.47
2019-01-21T01:51:18.861Z,101484.20
2019-01-21T01:53:48.057Z,101488.38
2019-01-21T01:56:17.606Z,101484.76
2019-01-21T01:58:47.187Z,101476.25
2019-01-21T02:01:16.390Z,101478.45
2019-01-21T02:03:45.914Z,101477.20
2019-01-21T02:06:17.203Z,101479.22
2019-01-21T02:08:46.386Z,101474.89
2019-01-21T02:11:17.855Z,101479.44
2019-01-21T02:13:47.068Z,101473.64
2019-01-21T02:16:16.275Z,101480.00
2019-01-21T02:18:45.726Z,101481.47
2019-01-21T02:21:15.399Z,101476.04
2019-01-21T02:23:48.431Z,101471.88
2019-01-21T02:26:22.007Z,101477.70
2019-01-21T02:29:32.935Z,101472.61
2019-01-21T02:32:49.825Z,101471.20
2019-01-21T02:35:31.106Z,101474.12
2019-01-21T02:38:25.050Z,101468.86
2019-01-21T02:41:15.747Z,101472.13
2019-01-21T02:43:58.012Z,101472.13
2019-01-21T02:46:42.956Z,101469.05
2019-01-21T02:49:47.849Z,101463.59
2019-01-21T02:53:00.507Z,101466.31
2019-01-21T02:56:24.255Z,101465.05
2019-01-21T02:59:22.377Z,101466.31
2019-01-21T03:02:44.768Z,101465.95
2019-01-21T03:06:09.082Z,101458.34
2019-01-21T03:09:13.949Z,101458.17
2019-01-21T03:12:22.230Z,101460.71
2019-01-21T03:15:28.206Z,101448.37
2019-01-21T03:18:34.571Z,101453.09
2019-01-21T03:21:57.079Z,101451.08
2019-01-21T03:25:06.624Z,101459.61
2019-01-21T03:28:11.640Z,101461.42
2019-01-21T03:31:16.634Z,101456.87
2019-01-21T03:34:14.301Z,101457.41
2019-01-21T03:37:20.931Z,101455.06
2019-01-21T03:40:09.826Z,101456.34
2019-01-21T03:43:22.463Z,101450.17
2019-01-21T03:46:13.061Z,101448.56
2019-01-21T03:49:07.219Z,101451.50
2019-01-21T03:52:22.523Z,101448.44
2019-01-21T03:54:56.414Z,101454.28
2019-01-21T03:57:38.458Z,101449.75
2019-01-21T04:00:46.400Z,101453.39
2019-01-21T04:03:51.487Z,101451.80
2019-01-21T04:06:52.700Z,101473.23
2019-01-21T04:09:47.141Z,101450.01
2019-01-21T04:13:13.244Z,101449.30
2019-01-21T04:16:18.312Z,101449.12
2019-01-21T04:19:23.803Z,101447.50
2019-01-21T04:22:31.547Z,101451.32
2019-01-21T04:25:32.035Z,101446.97
2019-01-21T04:28:26.401Z,101451.51
2019-01-21T04:31:47.444Z,101450.43
2019-01-21T04:34:59.559Z,101445.55
2019-01-21T04:38:14.804Z,101450.63
2019-01-21T04:41:26.260Z,101448.64
2019-01-21T04:44:30.321Z,101453.36
2019-01-21T04:47:18.443Z,101449.73
2019-01-21T04:50:24.531Z,101440.86
2019-01-21T04:53:22.727Z,101447.21
2019-01-21T04:56:44.126Z,101447.23
2019-01-21T05:00:12.329Z,101445.42
2019-01-21T05:03:17.145Z,101444.70
2019-01-21T05:06:21.896Z,101439.64
2019-01-21T05:09:31.024Z,101438.19
2019-01-21T05:12:41.492Z,101439.66
2019-01-21T05:16:04.631Z,101442.56
2019-01-21T05:19:04.666Z,101445.47
2019-01-21T05:22:32.913Z,101442.39
2019-01-21T05:25:26.216Z,101448.38
2019-01-21T05:28:38.809Z,101449.86
2019-01-21T05:31:19.526Z,101449.50
2019-01-21T05:34:45.869Z,101452.42
2019-01-21T05:38:02.283Z,101465.13
2019-01-21T05:41:08.903Z,101466.23
2019-01-21T05:44:17.099Z,101471.33
2019-01-21T05:47:36.178Z,101459.72
2019-01-21T05:50:40.969Z,101466.78
2019-01-21T05:53:45.895Z,101466.59
2019-01-21T05:56:44.088Z,101471.31
2019-01-21T05:59:55.800Z,101467.86
2019-01-21T06:03:12.100Z,101469.49
2019-01-21T06:06:25.851Z,101472.22
2019-01-21T06:09:15.480Z,101470.41
2019-01-21T06:12:10.535Z,101475.48
2019-01-21T06:15:09.664Z,101473.86
2019-01-21T06:17:53.258Z,101475.30
2019-01-21T06:21:11.078Z,101322.89
2019-01-21T06:24:45.751Z,101460.78
2019-01-21T06:27:29.311Z,101471.48
2019-01-21T06:30:23.571Z,101466.59
2019-01-21T06:33:20.722Z,101302.48
2019-01-21T06:36:32.909Z,101476.58
2019-01-21T06:39:44.828Z,101473.32
2019-01-21T06:42:53.326Z,101486.02
2019-01-21T06:45:45.881Z,101479.32
2019-01-21T06:49:14.776Z,101480.59
2019-01-21T06:52:17.846Z,101480.59
2019-01-21T06:55:46.501Z,101478.43
2019-01-21T06:59:02.751Z,101487.69
2019-01-21T07:02:03.755Z,101491.49
2019-01-21T07:04:56.652Z,101494.22
2019-01-21T07:08:06.930Z,101502.20
2019-01-21T07:10:59.765Z,101506.00
2019-01-21T07:14:08.997Z,101501.30
2019-01-21T07:17:34.935Z,101501.84
2019-01-21T07:20:50.438Z,101493.86
2019-01-21T07:24:14.316Z,101497.13
2019-01-21T07:27:24.117Z,101501.84
2019-01-21T07:30:35.190Z,101517.06
2019-01-21T07:33:42.405Z,101519.78
2019-01-21T07:36:25.573Z,101526.67
2019-01-21T07:39:35.890Z,101515.80
2019-01-21T07:42:29.415Z,101526.13
2019-01-21T07:45:42.643Z,101526.13
2019-01-21T07:48:39.778Z,101524.13
2019-01-21T07:51:40.173Z,101537.19
2019-01-21T07:54:35.500Z,101531.93
2019-01-21T07:57:54.760Z,101531.39
2019-01-21T08:00:59.832Z,101527.03
2019-01-21T08:03:59.289Z,101530.48
2019-01-21T08:07:14.517Z,101525.39
2019-01-21T08:10:34.777Z,101527.39
2019-01-21T08:13:23.023Z,101531.19
2019-01-21T08:16:45.552Z,101533.72
2019-01-21T08:19:43.045Z,101533.16
2019-01-21T08:22:44.679Z,101536.95
2019-01-21T08:26:03.478Z,101534.39
2019-01-21T08:29:09.920Z,101538.72
2019-01-21T08:31:59.627Z,101537.22
2019-01-21T08:35:08.511Z,101534.08
2019-01-21T08:38:15.710Z,101537.09
2019-01-21T08:41:27.683Z,101535.19
2019-01-21T08:44:55.905Z,101537.63
2019-01-21T08:47:38.595Z,101545.16
2019-01-21T08:50:52.074Z,101547.10
2019-01-21T08:54:01.832Z,101552.70
2019-01-21T08:57:07.833Z,101555.79
2019-01-21T09:00:04.076Z,101565.58
2019-01-21T09:03:14.612Z,101566.46
2019-01-21T09:06:37.430Z,101561.88
2019-01-21T09:09:37.486Z,101570.25
2019-01-21T09:12:50.843Z,101568.78
2019-01-21T09:15:37.296Z,101567.25
2019-01-21T09:18:42.495Z,101569.37
2019-01-21T09:21:40.111Z,101567.52
2019-01-21T09:24:50.718Z,101575.63
2019-01-21T09:27:55.278Z,101567.77
2019-01-21T09:30:51.987Z,101580.80
2019-01-21T09:33:58.736Z,101581.73
2019-01-21T09:37:14.969Z,101576.36
2019-01-21T09:40:09.890Z,101573.80
2019-01-21T09:43:10.500Z,101570.65
2019-01-21T09:46:16.676Z,101573.09
2019-01-21T09:48:44.641Z,101576.83
2019-01-21T09:51:17.189Z,101572.53
2019-01-21T09:53:51.372Z,101574.17
2019-01-21T09:56:22.072Z,101576.12
2019-01-21T09:58:54.939Z,101511.30
2019-01-21T10:01:26.463Z,101576.91
2019-01-21T10:03:56.254Z,101575.16
2019-01-21T10:06:34.255Z,101579.60
2019-01-21T10:09:30.444Z,101425.02
2019-01-21T10:12:40.643Z,101574.88
2019-01-21T10:15:44.346Z,101573.80
2019-01-21T10:18:42.756Z,101575.09
2019-01-21T10:21:36.763Z,101569.69
2019-01-21T10:24:43.753Z,101569.80
2019-01-21T10:27:38.742Z,101569.27
2019-01-21T10:30:49.367Z,101566.88
2019-01-21T10:33:46.835Z,101564.81
2019-01-21T10:37:09.073Z,101561.78
2019-01-21T10:40:46.827Z,101558.59
2019-01-21T10:43:57.029Z,101559.34
2019-01-21T10:47:08.868Z,101561.23
2019-01-21T10:50:10.341Z,101559.84
2019-01-21T10:53:07.691Z,101561.53
2019-01-21T10:55:59.168Z,101559.94
2019-01-21T10:58:47.533Z,101557.10
2019-01-21T11:02:11.804Z,101562.74
2019-01-21T11:05:12.671Z,101556.52
2019-01-21T11:08:22.426Z,101552.25
2019-01-21T11:11:32.604Z,101561.66
2019-01-21T11:14:28.318Z,101552.28
2019-01-21T11:17:26.241Z,101555.31
2019-01-21T11:20:45.615Z,101554.94
2019-01-21T11:23:51.525Z,101554.19
2019-01-21T11:26:46.554Z,101554.72
2019-01-21T11:30:15.410Z,101554.41
2019-01-21T11:33:37.994Z,101554.72
2019-01-21T11:36:59.907Z,101560.14
2019-01-21T11:40:04.673Z,101556.98
2019-01-21T11:42:58.425Z,101556.62
2019-01-21T11:46:09.054Z,101558.27
2019-01-21T11:49:09.303Z,101557.90
2019-01-21T11:52:34.459Z,101549.27
2019-01-21T11:55:48.456Z,101555.96
2019-01-21T11:58:44.945Z,101565.03
2019-01-21T12:01:56.170Z,101561.66
2019-01-21T12:04:47.232Z,101563.16
2019-01-21T12:07:41.358Z,101559.17
2019-01-21T12:10:40.432Z,101560.55
2019-01-21T12:13:24.709Z,101563.48
2019-01-21T12:16:44.180Z,101561.83
2019-01-21T12:19:51.987Z,101552.13
2019-01-21T12:23:01.426Z,101559.33
2019-01-21T12:26:09.898Z,101554.14
2019-01-21T12:28:52.196Z,101551.52
2019-01-21T12:32:07.115Z,101550.02
2019-01-21T12:34:53.696Z,101549.28
2019-01-21T12:38:12.898Z,101555.67
2019-01-21T12:41:23.089Z,101550.33
2019-01-21T12:44:09.678Z,101558.84
2019-01-21T12:47:00.521Z,101554.78
2019-01-21T12:50:15.837Z,101551.11
2019-01-21T12:52:52.657Z,101557.19
2019-01-21T12:56:18.107Z,101550.86
2019-01-21T12:59:20.068Z,101557.56
2019-01-21T13:02:24.235Z,101548.23
2019-01-21T13:05:17.747Z,101546.36
2019-01-21T13:08:15.629Z,101550.36
2019-01-21T13:10:56.913Z,101549.45
2019-01-21T13:14:22.864Z,101551.11
2019-01-21T13:17:16.943Z,101545.84
2019-01-21T13:20:36.464Z,101542.22
2019-01-21T13:23:32.495Z,101551.70
2019-01-21T13:26:45.849Z,101550.58
2019-01-21T13:29:23.539Z,101549.73
2019-01-21T13:32:28.411Z,101556.44
2019-01-21T13:35:25.657Z,101545.75
2019-01-21T13:38:33.367Z,101559.81
2019-01-21T13:41:51.986Z,101553.86
2019-01-21T13:44:56.553Z,101553.64
2019-01-21T13:48:11.932Z,101557.17
2019-01-21T13:51:00.892Z,101558.22
2019-01-21T13:54:28.034Z,101556.20
2019-01-21T13:57:47.073Z,101560.56
2019-01-21T14:00:51.834Z,101557.38
2019-01-21T14:04:00.060Z,101559.85
2019-01-21T14:07:08.506Z,101567.37
2019-01-21T14:10:12.811Z,101557.08
2019-01-21T14:13:06.147Z,101561.20
2019-01-21T14:16:19.313Z,101564.78
2019-01-21T14:19:12.633Z,101565.06
2019-01-21T14:22:21.431Z,101562.19
2019-01-21T14:25:26.024Z,101559.80
2019-01-21T14:28:31.967Z,101560.91
2019-01-21T14:32:00.646Z,101560.60
2019-01-21T14:35:02.026Z,101563.22
2019-01-21T14:38:21.540Z,101566.89
2019-01-21T14:41:14.289Z,101562.74
2019-01-21T14:44:12.426Z,101566.79
2019-01-21T14:47:47.952Z,101562.80
2019-01-21T14:51:03.312Z,101563.55
2019-01-21T14:54:17.823Z,101569.78
2019-01-21T14:57:13.339Z,101569.25
2019-01-21T15:00:08.651Z,101570.68
2019-01-21T15:03:17.935Z,101568.50
2019-01-21T15:06:30.115Z,101569.67
2019-01-21T15:09:23.678Z,101569.95
2019-01-21T15:12:23.901Z,101563.62
2019-01-21T15:15:37.455Z,101557.60
2019-01-21T15:18:42.530Z,101565.59
2019-01-21T15:21:35.108Z,101563.03
2019-01-21T15:24:33.458Z,101558.72
2019-01-21T15:27:19.854Z,101558.72
2019-01-21T15:30:39.430Z,101552.55
2019-01-21T15:33:31.672Z,101557.45
2019-01-21T15:36:43.004Z,101557.23
2019-01-21T15:39:45.862Z,101561.33
2019-01-21T15:42:32.408Z,101555.00
2019-01-21T15:45:41.127Z,101553.56
2019-01-21T15:49:00.864Z,101558.67
2019-01-21T15:52:10.244Z,101562.29
2019-01-21T15:55:11.037Z,101563.14
2019-01-21T15:58:03.141Z,101556.38
2019-01-21T16:01:22.774Z,101561.48
2019-01-21T16:04:04.172Z,101560.21
2019-01-21T16:07:29.444Z,101562.23
2019-01-21T16:10:25.319Z,101558.72
2019-01-21T16:13:31.860Z,101557.81
2019-01-21T16:16:32.659Z,101562.18
2019-01-21T16:19:11.628Z,101560.91
2019-01-21T16:22:16.759Z,101561.27
2019-01-21T16:25:33.533Z,101558.19
2019-01-21T16:28:36.940Z,101568.03
2019-01-21T16:31:29.511Z,101564.26
2019-01-21T16:34:30.822Z,101570.48
2019-01-21T16:37:11.546Z,101573.94
2019-01-21T16:40:20.223Z,101575.75
2019-01-21T16:42:49.583Z,101569.37
2019-01-21T16:45:21.116Z,101575.96
2019-01-21T16:47:50.460Z,101574.69
2019-01-21T16:50:21.728Z,101573.41
2019-01-21T16:52:53.599Z,101568.09
2019-01-21T16:55:22.855Z,101569.90
2019-01-21T16:57:52.130Z,101569.16
2019-01-21T17:00:21.521Z,101571.87
2019-01-21T17:02:50.864Z,101578.41
2019-01-21T17:05:21.095Z,101576.44
2019-01-21T17:07:51.619Z,101578.46
2019-01-21T17:10:20.994Z,101586.50
2019-01-21T17:12:51.422Z,101584.63
2019-01-21T17:15:20.772Z,101589.74
2019-01-21T17:17:51.351Z,101584.48
2019-01-21T17:20:22.717Z,101581.60
2019-01-21T17:22:51.995Z,101582.66
2019-01-21T17:25:21.510Z,101587.24
2019-01-21T17:27:50.914Z,101582.03
2019-01-21T17:30:20.164Z,101581.21
2019-01-21T17:32:50.487Z,101580.89
2019-01-21T17:35:20.138Z,101584.56
2019-01-21T17:37:50.656Z,101585.67
2019-01-21T17:40:20.210Z,101581.52
2019-01-21T17:42:50.052Z,101577.38
2019-01-21T17:45:23.183Z,101575.78
2019-01-21T17:47:52.735Z,101575.61
2019-01-21T17:50:23.914Z,101575.24
2019-01-21T17:52:53.957Z,101579.61
2019-01-21T17:55:23.856Z,101581.20
2019-01-21T17:57:53.067Z,101574.23
2019-01-21T18:00:23.958Z,101577.64
2019-01-21T18:02:53.272Z,101576.53
2019-01-21T18:05:24.024Z,101583.66
2019-01-21T18:07:53.797Z,101578.17
2019-01-21T18:10:23.007Z,101574.67
2019-01-21T18:12:52.245Z,101575.48
2019-01-21T18:15:21.562Z,101573.09
2019-01-21T18:17:50.748Z,101574.90
2019-01-21T18:20:22.936Z,101569.05
2019-01-21T18:22:52.157Z,101571.02
2019-01-21T18:25:21.388Z,101571.12
2019-01-21T18:27:50.758Z,101568.88
2019-01-21T18:30:25.394Z,101572.50
2019-01-21T18:32:54.670Z,101575.95
2019-01-21T18:35:25.329Z,101572.28
2019-01-21T18:37:55.548Z,101575.53
2019-01-21T18:40:24.810Z,101568.77
2019-01-21T18:42:54.019Z,101563.66
2019-01-21T18:45:26.006Z,101570.42
2019-01-21T18:47:55.361Z,101430.73
2019-01-21T18:50:24.529Z,101574.35
2019-01-21T18:52:54.397Z,101567.44
2019-01-21T18:55:23.620Z,101568.71
2019-01-21T18:57:55.943Z,101571.64
2019-01-21T19:00:25.742Z,101572.70
2019-01-21T19:02:55.243Z,101569.94
2019-01-21T19:05:27.152Z,101539.88
2019-01-21T19:07:56.380Z,101570.94
2019-01-21T19:10:25.590Z,101571.09
2019-01-21T19:12:55.181Z,101568.38
2019-01-21T19:15:31.285Z,101561.63
2019-01-21T19:18:00.916Z,101566.73
2019-01-21T19:20:30.320Z,101563.80
2019-01-21T19:22:59.556Z,101565.77
2019-01-21T19:25:29.029Z,101560.29
2019-01-21T19:27:58.251Z,101565.18
2019-01-21T19:30:28.197Z,101562.94
2019-01-21T19:32:59.129Z,101562.19
2019-01-21T19:35:33.671Z,101560.55
2019-01-21T19:38:02.981Z,101561.07
2019-01-21T19:40:32.296Z,101567.77
2019-01-21T19:43:01.539Z,101563.34
2019-01-21T19:45:31.018Z,101566.75
2019-01-21T19:48:00.262Z,101572.39
2019-01-21T19:50:29.515Z,101570.52
2019-01-21T19:52:58.907Z,101562.10
2019-01-21T19:55:34.509Z,101566.63
2019-01-21T19:58:03.799Z,101568.43
2019-01-21T20:00:33.143Z,101562.95
2019-01-21T20:03:02.580Z,101417.66
2019-01-21T20:05:32.162Z,101565.03
2019-01-21T20:08:01.359Z,101567.74
2019-01-21T20:10:31.100Z,101561.12
2019-01-21T20:13:02.112Z,101561.97
2019-01-21T20:15:31.408Z,101561.59
2019-01-21T20:18:00.634Z,101559.72
2019-01-21T20:20:35.949Z,101563.72
2019-01-21T20:23:05.192Z,101558.59
2019-01-21T20:25:34.495Z,101554.61
2019-01-21T20:28:03.888Z,101553.17
2019-01-21T20:30:33.145Z,101549.19
2019-01-21T20:33:02.309Z,101554.67
2019-01-21T20:35:31.709Z,101548.44
2019-01-21T20:38:00.988Z,101555.14
2019-01-21T20:40:30.236Z,101552.36
2019-01-21T20:42:59.619Z,101546.88
2019-01-21T20:45:28.843Z,101549.95
2019-01-21T20:47:58.037Z,101552.67
2019-01-21T20:50:29.690Z,101552.83
2019-01-21T20:52:59.066Z,101553.28
2019-01-21T20:55:28.362Z,101548.48
2019-01-21T20:57:57.678Z,101543.14
2019-01-21T21:00:29.411Z,101547.81
2019-01-21T21:02:59.366Z,101552.55
2019-01-21T21:05:28.577Z,101541.58
2019-01-21T21:07:58.407Z,101540.45
2019-01-21T21:10:27.792Z,101542.03
2019-01-21T21:12:57.124Z,101545.49
2019-01-21T21:15:29.247Z,101547.30
2019-01-21T21:17:58.491Z,101543.61
2019-01-21T21:20:27.792Z,101544.67
2019-01-21T21:22:57.114Z,101540.83
2019-01-21T21:25:26.520Z,101543.17
2019-01-21T21:27:55.712Z,101542.42
2019-01-21T21:30:32.829Z,101546.25
2019-01-21T21:33:02.043Z,101544.22
2019-01-21T21:35:31.252Z,101533.99
2019-01-21T21:38:00.804Z,101536.85
2019-01-21T21:40:29.998Z,101537.38
2019-01-21T21:43:00.974Z,101536.85
2019-01-21T21:45:30.410Z,101533.02
2019-01-21T21:48:02.796Z,101536.10
2019-01-21T21:50:33.447Z,101534.07
2019-01-21T21:53:02.774Z,101531.14
2019-01-21T21:55:32.104Z,101533.84
2019-01-21T21:58:01.584Z,101527.08
2019-01-21T22:00:31.016Z,101519.77
2019-01-21T22:03:00.228Z,101520.16
2019-01-21T22:05:32.136Z,101523.61
2019-01-21T22:08:01.382Z,101523.77
2019-01-21T22:10:30.895Z,101523.16
2019-01-21T22:13:00.345Z,101517.89
2019-01-21T22:15:29.704Z,101516.77
2019-01-21T22:17:58.921Z,101520.60
2019-01-21T22:20:28.765Z,101515.41
2019-01-21T22:22:58.113Z,101515.56
2019-01-21T22:25:27.340Z,101510.59
2019-01-21T22:27:56.632Z,101517.14
2019-01-21T22:30:27.837Z,101513.98
2019-01-21T22:32:57.302Z,101508.63
2019-01-21T22:35:26.533Z,101512.40
2019-01-21T22:37:55.823Z,101511.64
2019-01-21T22:40:25.298Z,101509.77
2019-01-21T22:42:54.484Z,101501.48
2019-01-21T22:45:25.648Z,101501.63
2019-01-21T22:47:55.045Z,101499.89
2019-01-21T22:50:24.254Z,101491.98
2019-01-21T22:52:53.775Z,101490.33
2019-01-21T22:55:23.069Z,101498.30
2019-01-21T22:57:52.265Z,101486.55
2019-01-21T23:00:55.950Z,101487.60
2019-01-21T23:03:28.562Z,101487.75
2019-01-21T23:05:58.033Z,101481.50
2019-01-21T23:08:27.364Z,101488.57
2019-01-21T23:10:56.626Z,101482.84
2019-01-21T23:13:27.966Z,101489.53
2019-01-21T23:15:57.182Z,101484.71
2019-01-21T23:18:26.776Z,101480.64
2019-01-21T23:20:56.185Z,101484.77
2019-01-21T23:23:25.798Z,101478.66
2019-01-21T23:25:54.992Z,101474.44
2019-01-21T23:28:24.284Z,101475.88
2019-01-21T23:30:53.721Z,101470.38
2019-01-21T23:33:23.404Z,101465.02
2019-01-21T23:35:52.602Z,101467.34
2019-01-21T23:38:21.912Z,101467.11
2019-01-21T23:40:51.105Z,101467.48
2019-01-21T23:43:20.390Z,101465.45
2019-01-21T23:45:50.265Z,101459.19
2019-01-21T23:48:19.443Z,101459.34
2019-01-21T23:50:48.726Z,101457.30
2019-01-21T23:53:18.235Z,101451.04
2019-01-21T23:55:47.432Z,101446.44
2019-01-21T23:58:16.608Z,101454.80
